Time;durP1;ratioP1;P1;durP2;ratioP2;P2;SDS_P1;SDS_P2;PMS_P1;PMS_P2;Temp;Humidity;BMP_temperature;BMP_pressure;BME280_temperature;BME280_humidity;BME280_pressure;Samples;Min_cycle;Max_cycle;Signal;HPM_P1;HPM_P2
2021/06/17 00:00:32;;;;;;;;;;;23.60;95.10;;;;;;5075965;28;19927;-80
2021/06/17 00:02:58;;;;;;;;;;;23.60;93.90;;;;;;5075928;28;19905;-80
2021/06/17 00:05:25;;;;;;;;;;;23.60;93.90;;;;;;5077200;28;19926;-79
2021/06/17 00:07:50;;;;;;;;;;;23.60;93.90;;;;;;5077247;28;20393;-80
2021/06/17 00:10:16;;;;;;;;;;;23.50;94.60;;;;;;5074440;28;19955;-81
2021/06/17 00:12:41;;;;;;;;;;;23.50;94.60;;;;;;5075659;28;20010;-80
2021/06/17 00:15:08;;;;;;;;;;;23.50;94.50;;;;;;5077315;28;19905;-80
2021/06/17 00:17:34;;;;;;;;;;;23.50;95.00;;;;;;5077394;28;20323;-78
2021/06/17 00:19:59;;;;;;;;;;;23.40;94.60;;;;;;5076931;28;19912;-79
2021/06/17 00:22:25;;;;;;;;;;;23.50;94.50;;;;;;5077429;28;19909;-80
2021/06/17 00:24:50;;;;;;;;;;;23.50;95.40;;;;;;5075923;28;19905;-79
2021/06/17 00:27:15;;;;;;;;;;;23.40;94.80;;;;;;5075386;28;20489;-80
2021/06/17 00:29:41;;;;;;;;;;;23.40;95.10;;;;;;5076507;28;19915;-79
2021/06/17 00:32:07;;;;;;;;;;;23.30;95.10;;;;;;5075475;28;19961;-80
2021/06/17 00:34:32;;;;;;;;;;;23.20;96.00;;;;;;5075587;28;19931;-80
2021/06/17 00:36:58;;;;;;;;;;;23.20;96.50;;;;;;5075848;28;19958;-79
2021/06/17 00:39:23;;;;;;;;;;;23.10;95.70;;;;;;5076601;28;19910;-79
2021/06/17 00:41:49;;;;;;;2.90;2.30;;;23.20;95.70;;;;;;5076836;28;19947;-79
2021/06/17 00:44:14;;;;;;;2.55;2.33;;;23.20;96.10;;;;;;5076201;28;20040;-80
2021/06/17 00:46:40;;;;;;;2.07;1.90;;;23.10;96.70;;;;;;5074324;28;20115;-79
2021/06/17 00:49:06;;;;;;;2.13;1.90;;;23.10;96.30;;;;;;5075665;28;20050;-79
2021/06/17 00:51:32;;;;;;;2.20;2.03;;;23.00;96.70;;;;;;5075510;28;20069;-80
2021/06/17 00:53:58;;;;;;;;;;;23.00;97.20;;;;;;5074136;28;20077;-79
2021/06/17 00:56:24;;;;;;;;;;;22.90;97.50;;;;;;5076489;28;19971;-79
2021/06/17 00:58:50;;;;;;;;;;;22.80;98.50;;;;;;5072050;28;19934;-78
2021/06/17 01:01:16;;;;;;;;;;;22.80;97.40;;;;;;5072145;28;19999;-78
2021/06/17 01:03:41;;;;;;;;;;;22.80;98.10;;;;;;5071559;28;19971;-77
2021/06/17 01:06:07;;;;;;;;;;;22.70;98.20;;;;;;5071876;28;19905;-79
2021/06/17 01:08:56;;;;;;;;;;;22.70;98.60;;;;;;5071726;28;19908;-77
2021/06/17 01:11:35;;;;;;;;;;;22.60;99.50;;;;;;5072716;28;20006;-79
2021/06/17 01:14:00;;;;;;;;;;;22.50;99.30;;;;;;5071673;28;20113;-79
2021/06/17 01:16:41;;;;;;;;;;;22.50;99.90;;;;;;5072931;28;20030;-79
2021/06/17 01:19:25;;;;;;;;;;;22.50;99.70;;;;;;5071377;28;19911;-79
2021/06/17 01:22:02;;;;;;;;;;;22.50;99.80;;;;;;5072968;28;20311;-76
2021/06/17 01:24:30;;;;;;;;;;;22.60;99.90;;;;;;5071643;28;19905;-79
2021/06/17 01:27:15;;;;;;;;;;;22.50;99.90;;;;;;5071551;28;19904;-79
2021/06/17 01:29:41;;;;;;;;;;;22.40;99.90;;;;;;5071368;28;19915;-78
2021/06/17 01:32:08;;;;;;;;;;;22.30;99.90;;;;;;5071604;28;20383;-79
2021/06/17 01:34:33;;;;;;;;;;;22.40;99.90;;;;;;5071542;28;19905;-78
2021/06/17 01:37:04;;;;;;;;;;;22.40;99.90;;;;;;5071525;28;20383;-79
2021/06/17 01:39:30;;;;;;;;;;;22.40;99.90;;;;;;5072043;28;19909;-79
2021/06/17 01:41:57;;;;;;;;;;;22.40;99.90;;;;;;5071022;28;19911;-78
2021/06/17 01:44:23;;;;;;;;;;;22.30;99.90;;;;;;5071026;28;20352;-78
2021/06/17 01:46:49;;;;;;;;;;;22.30;99.90;;;;;;5071060;28;19904;-79
2021/06/17 01:49:16;;;;;;;;;;;22.20;99.90;;;;;;5072252;28;19981;-78
2021/06/17 01:51:42;;;;;;;;;;;22.30;99.90;;;;;;5070965;28;20334;-78
2021/06/17 01:54:09;;;;;;;;;;;22.20;99.90;;;;;;5072568;28;19908;-78
2021/06/17 01:56:35;;;;;;;;;;;22.30;99.90;;;;;;5072411;28;19905;-78
2021/06/17 01:59:03;;;;;;;;;;;22.20;99.90;;;;;;5070800;28;20313;-78
2021/06/17 02:01:31;;;;;;;;;;;22.20;99.90;;;;;;5070944;28;19904;-78
2021/06/17 02:03:57;;;;;;;;;;;22.10;99.90;;;;;;5072053;28;19987;-78
2021/06/17 02:06:25;;;;;;;;;;;22.10;99.90;;;;;;5070771;28;19905;-79
2021/06/17 02:08:52;;;;;;;;;;;22.00;99.90;;;;;;5070217;28;19948;-78
2021/06/17 02:11:18;;;;;;;;;;;22.00;99.90;;;;;;5072259;28;19912;-78
2021/06/17 02:13:44;;;;;;;;;;;21.80;99.90;;;;;;5072246;28;19904;-78
2021/06/17 02:16:11;;;;;;;;;;;21.70;99.90;;;;;;5072312;28;19908;-78
2021/06/17 02:18:37;;;;;;;;;;;21.60;99.90;;;;;;5070860;28;19904;-78
2021/06/17 02:21:04;;;;;;;;;;;21.40;99.90;;;;;;5070932;28;20347;-79
2021/06/17 02:23:31;;;;;;;;;;;21.30;99.90;;;;;;5074321;28;19912;-78
2021/06/17 02:25:58;;;;;;;;;;;21.20;99.90;;;;;;5076086;28;19912;-78
2021/06/17 02:28:26;;;;;;;;;;;21.10;99.90;;;;;;5074354;28;19905;-78
2021/06/17 02:30:53;;;;;;;;;;;21.00;99.90;;;;;;5074564;28;19932;-78
2021/06/17 02:33:20;;;;;;;;;;;21.10;99.90;;;;;;5074728;28;20352;-78
2021/06/17 02:35:46;;;;;;;;;;;21.10;99.90;;;;;;5075557;28;19904;-78
2021/06/17 02:38:14;;;;;;;;;;;21.20;99.90;;;;;;5074334;28;19957;-78
2021/06/17 02:40:44;;;;;;;;;;;21.20;99.90;;;;;;5074359;28;20363;-78
2021/06/17 02:43:15;;;;;;;;;;;21.20;99.90;;;;;;5075562;28;19904;-78
2021/06/17 02:45:41;;;;;;;;;;;21.10;99.90;;;;;;5075524;28;20359;-78
2021/06/17 02:48:08;;;;;;;;;;;21.00;99.90;;;;;;5075489;28;19911;-78
2021/06/17 02:50:33;;;;;;;;;;;21.00;99.90;;;;;;5073901;28;19908;-79
2021/06/17 02:52:59;;;;;;;;;;;20.90;99.90;;;;;;5075533;28;19905;-78
2021/06/17 02:55:24;;;;;;;;;;;20.90;99.90;;;;;;5075476;28;19912;-78
2021/06/17 02:58:09;;;;;;;;;;;20.80;99.90;;;;;;5074081;28;19905;-78
2021/06/17 03:00:35;;;;;;;;;;;20.70;99.90;;;;;;5073809;28;19905;-78
2021/06/17 03:03:12;;;;;;;;;;;20.70;99.90;;;;;;5073992;28;19958;-78
2021/06/17 03:05:49;;;;;;;;;;;20.80;99.90;;;;;;5075160;28;19904;-78
2021/06/17 03:08:30;;;;;;;;;;;20.80;99.90;;;;;;5073734;28;20279;-78
2021/06/17 03:10:58;;;;;;;;;;;21.00;99.90;;;;;;5074297;28;19935;-78
2021/06/17 03:13:25;;;;;;;;;;;21.00;99.90;;;;;;5073739;28;19904;-78
2021/06/17 03:15:51;;;;;;;;;;;20.90;99.90;;;;;;5073670;28;19912;-78
2021/06/17 03:18:18;;;;;;;;;;;21.00;99.90;;;;;;5073654;28;19905;-78
2021/06/17 03:20:44;;;;;;;;;;;20.80;99.90;;;;;;5074653;28;19908;-78
2021/06/17 03:23:14;;;;;;;;;;;20.80;99.90;;;;;;5074860;28;20015;-78
2021/06/17 03:25:40;;;;;;;;;;;20.70;99.90;;;;;;5073474;28;19908;-78
2021/06/17 03:28:07;;;;;;;;;;;20.70;99.90;;;;;;5074680;28;19936;-78
2021/06/17 03:30:34;;;;;;;;;;;20.80;99.90;;;;;;5073473;28;19908;-78
2021/06/17 03:33:01;;;;;;;;;;;20.80;99.90;;;;;;5074457;28;20371;-78
2021/06/17 03:35:28;;;;;;;;;;;20.80;99.90;;;;;;5074750;28;19905;-78
2021/06/17 03:37:54;;;;;;;;;;;20.80;99.90;;;;;;5073501;28;19904;-78
2021/06/17 03:40:20;;;;;;;;;;;20.70;99.90;;;;;;5072989;28;19908;-78
2021/06/17 03:42:46;;;;;;;;;;;20.70;99.90;;;;;;5073344;28;19912;-78
2021/06/17 03:45:13;;;;;;;;;;;20.80;99.90;;;;;;5074469;28;19912;-78
2021/06/17 03:47:41;;;;;;;;;;;20.80;99.90;;;;;;5073105;28;19905;-78
2021/06/17 03:50:07;;;;;;;;;;;20.70;99.90;;;;;;5072997;28;20015;-78
2021/06/17 03:52:32;;;;;;;;;;;20.70;99.90;;;;;;5073064;28;19951;-78
2021/06/17 03:54:59;;;;;;;;;;;20.70;99.90;;;;;;5073071;28;19954;-78
2021/06/17 03:57:24;;;;;;;;;;;20.80;99.90;;;;;;5074211;28;19905;-78
2021/06/17 03:59:51;;;;;;;;;;;20.90;99.90;;;;;;5072602;28;19927;-77
2021/06/17 04:02:16;;;;;;;;;;;21.00;99.90;;;;;;5072637;28;19908;-78
2021/06/17 04:04:42;;;;;;;;;;;20.90;99.90;;;;;;5072850;28;19916;-79
2021/06/17 04:07:10;;;;;;;;;;;20.90;99.90;;;;;;5074386;28;19912;-78
2021/06/17 04:09:37;;;;;;;;;;;20.80;99.90;;;;;;5073823;28;19913;-78
2021/06/17 04:12:03;;;;;;;;;;;20.90;99.90;;;;;;5072539;28;19904;-78
2021/06/17 04:14:29;;;;;;;;;;;21.00;99.90;;;;;;5072870;28;19911;-78
2021/06/17 04:16:55;;;;;;;;;;;21.10;99.90;;;;;;5072840;28;19915;-79
2021/06/17 04:19:22;;;;;;;;;;;21.00;99.90;;;;;;5073731;28;19966;-78
2021/06/17 04:21:50;;;;;;;;;;;21.00;99.90;;;;;;5073911;28;19904;-78
2021/06/17 04:24:19;;;;;;;4.07;2.83;;;21.00;99.90;;;;;;5073540;28;20367;-78
2021/06/17 04:26:45;;;;;;;5.22;2.78;;;21.00;99.90;;;;;;5072839;28;20090;-78
2021/06/17 04:29:13;;;;;;;;;;;21.10;99.90;;;;;;5073181;28;20321;-79
2021/06/17 04:31:39;;;;;;;5.40;3.30;;;21.30;99.90;;;;;;5072746;28;20041;-78
2021/06/17 04:34:04;;;;;;;6.45;2.85;;;21.40;99.90;;;;;;5074426;28;20058;-78
2021/06/17 04:36:30;;;;;;;4.43;2.37;;;21.50;99.90;;;;;;5074554;28;20448;-78
2021/06/17 04:38:56;;;;;;;4.22;2.83;;;21.70;99.90;;;;;;5075158;28;20529;-78
2021/06/17 04:41:21;;;;;;;2.75;2.33;;;22.80;99.90;;;;;;5071963;28;20024;-79
2021/06/17 04:43:48;;;;;;;3.83;2.67;;;25.00;99.90;;;;;;5071058;28;20032;-79
2021/06/17 04:46:14;;;;;;;;;;;25.90;99.90;;;;;;5070042;28;20432;-79
2021/06/17 04:48:41;;;;;;;;;;;25.00;99.90;;;;;;5071010;28;20002;-79
2021/06/17 04:51:10;;;;;;;4.10;2.08;;;25.80;99.90;;;;;;5070093;28;19904;-79
2021/06/17 04:53:36;;;;;;;3.70;3.15;;;27.50;99.90;;;;;;5070553;28;20024;-79
2021/06/17 04:56:02;;;;;;;;;;;27.90;99.90;;;;;;5070705;28;20403;-79
2021/06/17 04:58:27;;;;;;;;;;;27.10;99.90;;;;;;5071417;28;20111;-79
2021/06/17 05:00:53;;;;;;;;;;;26.80;99.90;;;;;;5071598;28;20288;-79
2021/06/17 05:03:19;;;;;;;;;;;25.90;99.90;;;;;;5072536;28;20049;-79
2021/06/17 05:05:47;;;;;;;;;;;25.00;99.90;;;;;;5072596;28;20140;-79
2021/06/17 05:10:49;;;;;;;;;;;24.30;99.90;;;;;;5070867;28;25129;-79
2021/06/17 05:13:15;;;;;;;;;;;24.40;99.90;;;;;;5069648;28;24111;-79
2021/06/17 05:15:41;;;;;;;;;;;24.90;99.90;;;;;;5071721;28;19911;-79
2021/06/17 05:18:06;;;;;;;;;;;25.80;99.90;;;;;;5071719;28;19904;-79
2021/06/17 05:20:32;;;;;;;;;;;26.20;99.90;;;;;;5071111;28;19904;-79
2021/06/17 05:22:57;;;;;;;;;;;26.10;99.90;;;;;;5069537;28;20010;-79
2021/06/17 05:25:22;;;;;;;;;;;26.00;99.90;;;;;;5069246;28;19904;-79
2021/06/17 05:27:48;;;;;;;;;;;25.80;99.90;;;;;;5071220;28;19915;-78
2021/06/17 05:30:14;;;;;;;;;;;25.50;99.90;;;;;;5069618;28;19909;-79
2021/06/17 05:32:42;;;;;;;;;;;25.50;99.90;;;;;;5071138;28;20312;-79
2021/06/17 05:35:07;;;;;;;;;;;25.50;99.90;;;;;;5069981;28;20330;-79
2021/06/17 05:37:33;;;;;;;;;;;25.60;99.90;;;;;;5078451;28;19908;-78
2021/06/17 05:39:58;;;;;;;;;;;25.70;99.90;;;;;;5083395;28;19908;-78
2021/06/17 05:42:24;;;;;;;;;;;26.00;99.90;;;;;;5080751;28;19958;-79
2021/06/17 05:44:52;;;;;;;;;;;26.10;99.90;;;;;;5076722;28;19995;-79
2021/06/17 05:47:18;;;;;;;;;;;26.10;99.90;;;;;;5089798;28;19904;-79
2021/06/17 05:49:43;;;;;;;;;;;26.20;99.90;;;;;;5091027;28;19943;-79
2021/06/17 05:52:09;;;;;;;;;;;26.50;99.90;;;;;;5090114;28;19955;-80
2021/06/17 05:54:34;;;;;;;;;;;27.30;99.90;;;;;;5089871;28;19927;-79
2021/06/17 05:56:59;;;;;;;;;;;27.80;99.90;;;;;;5091856;28;19904;-80
2021/06/17 05:59:25;;;;;;;;;;;29.00;98.10;;;;;;5095310;28;19904;-79
2021/06/17 06:01:50;;;;;;;;;;;29.10;97.40;;;;;;5094074;28;19915;-79
2021/06/17 06:04:16;;;;;;;;;;;28.80;97.60;;;;;;5094076;28;19900;-80
2021/06/17 06:06:41;;;;;;;;;;;28.50;98.20;;;;;;5094387;28;19911;-80
2021/06/17 06:09:08;;;;;;;;;;;28.20;98.60;;;;;;5093444;28;19998;-80
2021/06/17 06:11:34;;;;;;;;;;;28.00;98.80;;;;;;5094225;28;19911;-80
2021/06/17 06:13:59;;;;;;;;;;;27.90;97.50;;;;;;5093878;28;19908;-79
2021/06/17 06:16:25;;;;;;;;;;;27.90;99.70;;;;;;5093583;28;20358;-79
2021/06/17 06:18:50;;;;;;;;;;;28.10;98.80;;;;;;5094288;28;19958;-79
2021/06/17 06:21:16;;;;;;;;;;;28.70;97.30;;;;;;5095969;28;20101;-80
2021/06/17 06:23:42;;;;;;;5.77;2.50;;;30.20;97.00;;;;;;5094625;28;20072;-79
2021/06/17 06:26:07;;;;;;;4.00;2.20;;;31.30;94.10;;;;;;5095287;28;20028;-80
2021/06/17 06:28:33;;;;;;;2.80;2.00;;;33.10;93.40;;;;;;5094234;28;20035;-80
2021/06/17 06:30:59;;;;;;;;;;;35.00;88.20;;;;;;5086647;28;19970;-80
2021/06/17 06:33:24;;;;;;;;;;;36.50;83.40;;;;;;5073752;28;20279;-79
2021/06/17 06:35:50;;;;;;;;;;;37.20;79.70;;;;;;5073768;28;19905;-80
2021/06/17 06:38:15;;;;;;;;;;;37.40;77.70;;;;;;5076273;28;20023;-80
2021/06/17 06:40:41;;;;;;;2.70;2.40;;;37.80;73.20;;;;;;5089587;28;20046;-79
2021/06/17 06:43:08;;;;;;;;;;;37.80;70.80;;;;;;5080585;28;20163;-80
2021/06/17 06:45:33;;;;;;;;;;;38.00;69.00;;;;;;5079541;28;20052;-80
2021/06/17 06:48:00;;;;;;;2.95;1.88;;;38.70;65.70;;;;;;5085495;28;20062;-79
2021/06/17 06:50:25;;;;;;;;;;;39.50;67.30;;;;;;5086544;28;20033;-79
2021/06/17 06:52:51;;;;;;;;;;;40.20;62.20;;;;;;5082762;28;20260;-79
2021/06/17 06:55:17;;;;;;;2.10;1.77;;;40.30;64.10;;;;;;5082397;28;19908;-81
2021/06/17 06:57:43;;;;;;;2.90;1.48;;;40.20;63.70;;;;;;5085048;28;20020;-80
2021/06/17 07:00:12;;;;;;;5.43;2.00;;;40.30;60.70;;;;;;5082133;28;20119;-80
2021/06/17 07:02:37;;;;;;;6.80;1.80;;;39.20;60.90;;;;;;5085910;28;20036;-80
2021/06/17 07:05:04;;;;;;;2.38;1.80;;;38.10;60.60;;;;;;5084226;28;20123;-80
2021/06/17 07:07:30;;;;;;;2.53;2.10;;;37.20;64.20;;;;;;5083643;28;20029;-80
2021/06/17 07:09:56;;;;;;;2.03;1.77;;;36.30;65.00;;;;;;5084303;28;20020;-79
2021/06/17 07:12:21;;;;;;;4.72;1.65;;;35.70;66.80;;;;;;5081703;28;20245;-80
2021/06/17 07:14:48;;;;;;;1.92;1.52;;;35.20;68.30;;;;;;5083563;28;20074;-80
2021/06/17 07:17:14;;;;;;;2.63;1.63;;;34.60;69.40;;;;;;5082478;28;20093;-80
2021/06/17 07:19:39;;;;;;;2.03;1.73;;;33.80;70.70;;;;;;5085379;28;20493;-79
2021/06/17 07:22:05;;;;;;;6.88;2.25;;;33.20;69.90;;;;;;5083182;28;20395;-80
2021/06/17 07:24:30;;;;;;;7.25;1.35;;;32.90;71.70;;;;;;5082643;28;20024;-80
2021/06/17 07:26:56;;;;;;;3.17;2.40;;;32.70;73.90;;;;;;5084190;28;20030;-80
2021/06/17 07:29:22;;;;;;;1.75;1.55;;;32.40;73.20;;;;;;5082324;28;20102;-79
2021/06/17 07:31:48;;;;;;;1.70;1.58;;;32.30;72.40;;;;;;5084085;28;20024;-79
2021/06/17 07:34:14;;;;;;;;;;;32.30;70.70;;;;;;5092828;28;20031;-79
2021/06/17 07:36:40;;;;;;;;;;;32.70;71.30;;;;;;5092666;28;19903;-80
2021/06/17 07:39:06;;;;;;;;;;;34.30;73.40;;;;;;5093337;28;20011;-79
2021/06/17 07:41:32;;;;;;;4.72;1.92;;;34.90;71.30;;;;;;5093057;28;20371;-79
2021/06/17 07:43:58;;;;;;;;;;;34.80;67.60;;;;;;5091790;28;20036;-80
2021/06/17 07:46:24;;;;;;;3.90;2.00;;;34.90;70.90;;;;;;5091121;28;19911;-80
2021/06/17 07:48:49;;;;;;;;;;;34.00;72.30;;;;;;5092504;28;20278;-78
2021/06/17 07:51:15;;;;;;;;;;;33.30;70.70;;;;;;5093957;28;20278;-79
2021/06/17 07:53:41;;;;;;;;;;;32.90;72.80;;;;;;5092420;28;19960;-79
2021/06/17 07:56:06;;;;;;;;;;;32.90;78.00;;;;;;5093130;28;20347;-80
2021/06/17 07:58:32;;;;;;;;;;;33.20;76.90;;;;;;5095330;28;19911;-79
2021/06/17 08:00:57;;;;;;;;;;;33.10;74.60;;;;;;5093846;28;19911;-80
2021/06/17 08:03:23;;;;;;;;;;;32.60;75.40;;;;;;5113268;28;19904;-79
2021/06/17 08:05:48;;;;;;;;;;;32.10;74.30;;;;;;5113029;28;20354;-80
2021/06/17 08:08:14;;;;;;;;;;;31.70;76.50;;;;;;5092938;28;19999;-80
2021/06/17 08:10:40;;;;;;;;;;;31.70;77.20;;;;;;5085710;28;20011;-79
2021/06/17 08:13:06;;;;;;;3.80;2.40;;;31.80;79.10;;;;;;5081291;28;20060;-79
2021/06/17 08:15:32;;;;;;;3.33;2.75;;;32.40;78.40;;;;;;5080144;28;20075;-80
2021/06/17 08:17:58;;;;;;;4.90;2.88;;;32.90;76.20;;;;;;5090217;28;20465;-80
2021/06/17 08:20:23;;;;;;;2.67;2.23;;;33.40;78.80;;;;;;5090981;28;20117;-80
2021/06/17 08:22:49;;;;;;;;;;;33.30;76.80;;;;;;5092044;28;20377;-80
2021/06/17 08:25:15;;;;;;;2.73;1.87;;;33.60;78.20;;;;;;5092166;28;20057;-80
2021/06/17 08:27:41;;;;;;;2.10;2.00;;;33.70;76.70;;;;;;5092499;28;20466;-80
2021/06/17 08:30:10;;;;;;;4.50;2.28;;;33.50;75.40;;;;;;5094458;28;20080;-80
2021/06/17 08:32:35;;;;;;;3.15;2.70;;;33.50;75.50;;;;;;5073685;28;20032;-80
2021/06/17 08:35:01;;;;;;;4.88;2.20;;;33.50;76.50;;;;;;5074787;28;20345;-80
2021/06/17 08:37:27;;;;;;;3.20;2.90;;;33.70;75.00;;;;;;5073936;28;20029;-80
2021/06/17 08:39:55;;;;;;;;;;;33.80;76.80;;;;;;5073162;28;20035;-81
2021/06/17 08:42:31;;;;;;;;;;;33.70;73.90;;;;;;5078967;28;20040;-80
2021/06/17 08:44:57;;;;;;;;;;;33.90;80.10;;;;;;5093499;28;20294;-80
2021/06/17 08:47:23;;;;;;;;;;;33.60;78.00;;;;;;5093374;28;19911;-80
2021/06/17 08:49:53;;;;;;;;;;;33.70;80.60;;;;;;5092904;28;20285;-80
2021/06/17 08:52:19;;;;;;;;;;;33.50;78.60;;;;;;5092267;28;20043;-80
2021/06/17 08:54:45;;;;;;;;;;;33.50;80.80;;;;;;5092337;28;20003;-80
2021/06/17 08:57:11;;;;;;;;;;;33.60;77.90;;;;;;5094683;28;19929;-80
2021/06/17 08:59:41;;;;;;;;;;;33.70;79.20;;;;;;5086355;28;24078;-80
2021/06/17 09:02:07;;;;;;;;;;;33.90;82.30;;;;;;5084672;28;25113;-80
2021/06/17 09:04:33;;;;;;;;;;;34.40;79.80;;;;;;5075039;28;20326;-80
2021/06/17 09:07:03;;;;;;;;;;;34.70;80.00;;;;;;5074246;28;20371;-80
2021/06/17 09:09:32;;;;;;;;;;;35.00;78.70;;;;;;5090044;28;20137;-81
2021/06/17 09:11:57;;;;;;;;;;;34.80;77.30;;;;;;5097099;28;20088;-82
2021/06/17 09:14:26;;;;;;;;;;;34.90;78.60;;;;;;5095298;28;20080;-82
2021/06/17 09:16:56;;;;;;;;;;;34.80;76.30;;;;;;5094454;28;20574;-81
2021/06/17 09:19:41;;;;;;;;;;;34.40;77.30;;;;;;5096171;28;20065;-82
2021/06/17 09:22:07;;;;;;;;;;;34.00;82.60;;;;;;5095170;28;20102;-84
2021/06/17 09:24:34;;;;;;;;;;;34.30;79.00;;;;;;5096093;28;20245;-81
2021/06/17 09:27:22;;;;;;;;;;;34.70;77.90;;;;;;5097919;28;20027;-81
2021/06/17 09:29:49;;;;;;;5.25;3.80;;;35.10;80.40;;;;;;5081222;28;20453;-82
2021/06/17 09:32:23;;;;;;;;;;;35.20;81.70;;;;;;5085887;28;20063;-82
2021/06/17 09:34:48;;;;;;;3.60;3.30;;;35.10;80.70;;;;;;5082303;28;20039;-83
2021/06/17 09:37:46;;;;;;;;;;;34.80;81.80;;;;;;5087733;28;20020;-81
2021/06/17 09:40:28;;;;;;;3.42;3.13;;;34.80;81.60;;;;;;5050730;28;20051;-81
2021/06/17 09:43:19;;;;;;;5.30;4.40;;;34.50;82.50;;;;;;5080349;28;20028;-81
2021/06/17 09:45:55;;;;;;;3.70;3.40;;;34.50;79.20;;;;;;5087324;28;20057;-82
2021/06/17 09:48:42;;;;;;;6.63;3.90;;;34.10;83.80;;;;;;5081766;28;20140;-80
2021/06/17 09:51:23;;;;;;;3.93;3.43;;;34.10;80.30;;;;;;5075760;28;20033;-83
2021/06/17 09:53:50;;;;;;;4.63;3.40;;;34.20;81.50;;;;;;5086562;28;20024;-81
2021/06/17 09:56:16;;;;;;;;;;;34.70;80.00;;;;;;5084216;28;20003;-82
2021/06/17 09:58:44;;;;;;;;;;;34.60;77.40;;;;;;5081268;28;20039;-80
2021/06/17 10:01:31;;;;;;;;;;;34.70;78.40;;;;;;5086223;28;19936;-81
2021/06/17 10:04:09;;;;;;;5.40;4.30;;;35.00;80.20;;;;;;5085582;28;20130;-82
2021/06/17 10:06:41;;;;;;;5.28;4.78;;;35.10;80.60;;;;;;5082075;28;20032;-83
2021/06/17 10:09:11;;;;;;;4.30;3.90;;;35.00;79.30;;;;;;5084820;28;20016;-82
2021/06/17 10:11:42;;;;;;;5.20;4.40;;;35.20;81.70;;;;;;5082077;28;20024;-83
2021/06/17 10:14:09;;;;;;;6.00;4.20;;;35.70;77.10;;;;;;5085928;28;20012;-85
2021/06/17 10:16:38;;;;;;;3.70;3.30;;;35.90;80.30;;;;;;5082509;28;20247;-82
2021/06/17 10:19:07;;;;;;;4.13;3.72;;;36.40;80.20;;;;;;5082807;28;20092;-82
2021/06/17 10:21:33;;;;;;;4.43;4.03;;;36.80;81.80;;;;;;5085013;28;20089;-82
2021/06/17 10:24:01;;;;;;;4.20;3.80;;;37.30;79.40;;;;;;5090111;28;20106;-81
2021/06/17 10:26:30;;;;;;;4.35;4.03;;;37.40;75.00;;;;;;5094538;28;20028;-82
2021/06/17 10:28:56;;;;;;;4.82;4.32;;;37.30;74.60;;;;;;5094924;28;20032;-84
2021/06/17 10:31:50;;;;;;;4.38;3.97;;;37.60;74.00;;;;;;5097285;28;20463;-84
2021/06/17 10:34:25;;;;;;;6.07;4.38;;;37.70;72.80;;;;;;5093071;28;20032;-81
2021/06/17 10:37:11;;;;;;;;;;;37.80;72.30;;;;;;5076871;28;20020;-80
2021/06/17 10:39:48;;;;;;;6.88;4.07;;;38.10;75.80;;;;;;5078911;28;19951;-82
2021/06/17 10:42:41;;;;;;;4.47;3.50;;;38.50;76.20;;;;;;5075294;28;20131;-79
2021/06/17 10:45:32;;;;;;;4.40;3.92;;;38.50;73.90;;;;;;5086945;28;20525;-84
2021/06/17 10:48:12;;;;;;;5.38;3.95;;;38.30;70.70;;;;;;5097588;28;20551;-84
2021/06/17 10:50:43;;;;;;;4.05;3.58;;;38.20;72.90;;;;;;5087024;28;20073;-81
2021/06/17 10:53:46;;;;;;;4.60;4.20;;;38.50;74.50;;;;;;5077217;28;20501;-82
2021/06/17 10:56:37;;;;;;;6.57;4.93;;;38.70;76.40;;;;;;5076851;28;20036;-82
2021/06/17 10:59:03;;;;;;;4.82;4.32;;;38.80;70.60;;;;;;5087746;28;20032;-83
2021/06/17 11:01:40;;;;;;;4.80;3.80;;;38.90;71.00;;;;;;5087991;28;20479;-83
2021/06/17 11:04:09;;;;;;;4.07;3.78;;;39.20;70.90;;;;;;5088677;28;20036;-84
2021/06/17 11:06:52;;;;;;;3.95;3.63;;;39.50;70.30;;;;;;5086785;28;20020;-83
2021/06/17 11:09:46;;;;;;;4.35;3.85;;;39.10;69.70;;;;;;5091000;28;20506;-84
2021/06/17 11:12:18;;;;;;;4.28;3.97;;;38.50;74.50;;;;;;5087999;28;20025;-81
2021/06/17 11:14:56;;;;;;;6.25;4.47;;;38.00;73.60;;;;;;5090698;28;20399;-83
2021/06/17 11:17:31;;;;;;;6.03;4.35;;;37.80;75.40;;;;;;5091630;28;20020;-84
2021/06/17 11:20:04;;;;;;;4.83;4.23;;;37.40;71.10;;;;;;5085753;28;20039;-83
2021/06/17 11:22:33;;;;;;;;;;;37.10;77.70;;;;;;5091881;28;20277;-83
2021/06/17 11:25:09;;;;;;;;;;;36.40;72.80;;;;;;5087785;28;19904;-80
2021/06/17 11:27:35;;;;;;;;;;;35.90;72.50;;;;;;5088353;28;19950;-83
2021/06/17 11:30:00;;;;;;;4.45;3.97;;;35.60;75.70;;;;;;5086877;28;19908;-82
2021/06/17 11:32:27;;;;;;;;;;;35.50;75.10;;;;;;5088672;28;20471;-82
2021/06/17 11:34:53;;;;;;;;;;;35.50;79.30;;;;;;5087262;28;19912;-82
2021/06/17 11:37:19;;;;;;;;;;;35.30;78.60;;;;;;5090140;28;19976;-80
2021/06/17 11:39:46;;;;;;;;;;;35.00;79.70;;;;;;5089627;28;24060;-82
2021/06/17 11:42:16;;;;;;;;;;;35.10;81.20;;;;;;5091385;28;19904;-81
2021/06/17 11:44:41;;;;;;;;;;;35.20;79.90;;;;;;5090807;28;19912;-83
2021/06/17 11:47:08;;;;;;;;;;;35.00;79.10;;;;;;5090587;28;19911;-80
2021/06/17 11:49:41;;;;;;;;;;;35.10;76.60;;;;;;5089250;28;19945;-82
2021/06/17 11:52:07;;;;;;;;;;;35.10;80.50;;;;;;5078020;28;19911;-82
2021/06/17 11:54:33;;;;;;;;;;;35.20;77.60;;;;;;5088080;28;20375;-82
2021/06/17 11:57:00;;;;;;;;;;;35.10;77.00;;;;;;5087572;28;19975;-82
2021/06/17 11:59:26;;;;;;;;;;;34.90;79.70;;;;;;5088698;28;19916;-81
2021/06/17 12:02:07;;;;;;;;;;;35.10;81.90;;;;;;5087063;28;19904;-80
2021/06/17 12:04:43;;;;;;;;;;;35.10;75.50;;;;;;5090771;28;19908;-81
2021/06/17 12:07:09;;;;;;;;;;;35.10;79.00;;;;;;5085944;28;19957;-81
2021/06/17 12:09:35;;;;;;;;;;;35.10;77.00;;;;;;5097799;28;19912;-80
2021/06/17 12:12:13;;;;;;;;;;;35.20;79.90;;;;;;5098551;28;19911;-82
2021/06/17 12:14:40;;;;;;;;;;;35.10;76.10;;;;;;5095629;28;19904;-80
2021/06/17 12:17:05;;;;;;;;;;;35.00;79.70;;;;;;5096401;28;19904;-80
2021/06/17 12:19:31;;;;;;;;;;;35.00;81.50;;;;;;5096663;28;19941;-81
2021/06/17 12:22:03;;;;;;;;;;;34.90;78.90;;;;;;5098018;28;19904;-81
2021/06/17 12:24:28;;;;;;;;;;;35.20;77.00;;;;;;5097042;28;20317;-80
2021/06/17 12:26:53;;;;;;;;;;;35.30;78.20;;;;;;5096433;28;19904;-82
2021/06/17 12:29:23;;;;;;;;;;;35.40;80.30;;;;;;5095811;28;19908;-82
2021/06/17 12:31:53;;;;;;;;;;;35.40;81.40;;;;;;5082027;28;19908;-82
2021/06/17 12:34:19;;;;;;;;;;;35.50;78.20;;;;;;5077793;28;20390;-80
2021/06/17 12:36:58;;;;;;;4.78;4.38;;;35.50;78.80;;;;;;5084543;28;20003;-80
2021/06/17 12:39:24;;;;;;;;;;;35.50;79.30;;;;;;5077173;28;20017;-80
2021/06/17 12:41:50;;;;;;;;;;;35.40;77.10;;;;;;5077685;28;19927;-83
2021/06/17 12:44:29;;;;;;;;;;;35.10;76.10;;;;;;5074938;28;20410;-81
2021/06/17 12:46:56;;;;;;;;;;;34.90;74.80;;;;;;5075547;28;19948;-83
2021/06/17 12:52:10;;;;;;;;;;;34.90;77.00;;;;;;5057627;28;19916;-81
2021/06/17 12:54:48;;;;;;;;;;;34.90;78.70;;;;;;5076910;28;20326;-83
2021/06/17 12:57:15;;;;;;;;;;;34.70;77.00;;;;;;5080981;28;19908;-81
2021/06/17 12:59:40;;;;;;;;;;;34.50;80.50;;;;;;5075474;28;19904;-81
2021/06/17 13:02:10;;;;;;;;;;;34.50;76.10;;;;;;5074695;28;19908;-82
2021/06/17 13:04:36;;;;;;;;;;;34.30;77.00;;;;;;5074581;28;19976;-80
2021/06/17 13:07:12;;;;;;;;;;;34.10;76.40;;;;;;5075902;28;19948;-81
2021/06/17 13:09:37;;;;;;;;;;;33.70;76.40;;;;;;5095155;28;19912;-82
2021/06/17 13:12:04;;;;;;;;;;;33.60;78.00;;;;;;5095005;28;19911;-82
2021/06/17 13:14:30;;;;;;;;;;;33.60;82.60;;;;;;5094843;28;19961;-81
2021/06/17 13:17:05;;;;;;;;;;;33.40;78.40;;;;;;5077240;28;19958;-82
2021/06/17 13:19:31;;;;;;;;;;;33.20;80.40;;;;;;5074742;28;19912;-82
2021/06/17 13:22:06;;;;;;;11.02;4.35;;;33.20;78.60;;;;;;5076240;28;20050;-81
2021/06/17 13:24:41;;;;;;;4.90;4.38;;;33.10;85.30;;;;;;5079384;28;20024;-80
2021/06/17 13:27:12;;;;;;;4.53;4.13;;;33.20;80.40;;;;;;5076927;28;20544;-80
2021/06/17 13:29:51;;;;;;;;;;;33.50;78.90;;;;;;5077668;28;20387;-81
2021/06/17 13:32:16;;;;;;;;;;;34.00;79.30;;;;;;5078566;28;20347;-80
2021/06/17 13:34:42;;;;;;;;;;;34.70;77.10;;;;;;5077345;28;19943;-81
2021/06/17 13:37:07;;;;;;;;;;;35.00;79.80;;;;;;5078326;28;19911;-81
2021/06/17 13:39:33;;;;;;;;;;;35.00;77.80;;;;;;5085345;28;19908;-80
2021/06/17 13:41:58;;;;;;;;;;;35.20;80.30;;;;;;5083274;28;20018;-81
2021/06/17 13:44:24;;;;;;;;;;;35.20;76.80;;;;;;5087239;28;20359;-81
2021/06/17 13:46:50;;;;;;;;;;;35.20;76.70;;;;;;5087925;28;19955;-81
2021/06/17 13:49:15;;;;;;;;;;;35.20;76.50;;;;;;5082465;28;19911;-82
2021/06/17 13:51:41;;;;;;;;;;;35.40;76.40;;;;;;5079299;28;19908;-81
2021/06/17 13:54:06;;;;;;;;;;;35.30;73.30;;;;;;5087250;28;19912;-81
2021/06/17 13:56:32;;;;;;;;;;;35.30;73.70;;;;;;5083960;28;20267;-79
2021/06/17 13:58:57;;;;;;;;;;;35.20;74.80;;;;;;5085752;28;19908;-80
2021/06/17 14:01:22;;;;;;;;;;;35.30;72.90;;;;;;5084673;28;19908;-80
2021/06/17 14:03:48;;;;;;;;;;;35.50;76.10;;;;;;5081717;28;19911;-81